Sagehen Creek Weather observations

Data are for observation ending at time listed.
 Day   Time    Ave.   Ave.  Ave.  Vector   Max.   Stn.    Total    Solar   Ave.  
  of    of     Air    Rel.  Wind   Wind    Wind   Baro.  Precip.   Rad.    Soil  
Year   Day     Temp.  Hum.  Speed  Dir.    Gust   Pres.                    Temp. 
2015   (PST)    F      %     mph   deg.    mph     mb.     in.     W/m2     F   
------------------------------------------------------------------------------
  57   17:10   42.4    33    0.6    77      2.8   833.5   10.04      18    999.0
  57   17:20   40.7    36    0.3     0      1.5   833.1   10.04      12    999.0
  57   17:30   38.9    42    0.1   187      1.6   832.8   10.04       9    999.0
  57   17:40   36.8    46    0.7   256      1.4   833.3   10.04       7    999.0
  57   17:50   34.9    55    0.2   257      1.1   833.0   10.04       4    999.0
  57   18:00   33.3    57    0.8   235      1.5   832.9   10.04       2    999.0
  57   18:10   32.1    61    0.5   235      1.2   833.1   10.04       1    999.0
  57   18:20   31.0    62    0.3   245      1.1   833.2   10.04       0    999.0
  57   18:30   30.2    60    0.7   257      1.2   833.2   10.04       0    999.0
  57   18:40   29.5    61    0.2   254      0.9   832.7   10.04       0    999.0
  57   18:50   28.7    63    0.0     0      0.0   832.9   10.04       0    999.0
  57   19:00   27.9    66    0.5   256      1.0   833.0   10.04       0    999.0
  57   19:10   27.4    66    0.2   268      0.7   832.9   10.04       0    999.0
  57   19:20   27.0    66    0.5   259      1.2   832.6   10.04       0    999.0
  57   19:30   26.8    68    0.2   238      0.9   832.3   10.04       0    999.0
  57   19:40   26.6    68    0.0     0      0.0   832.7   10.04       0    999.0
  57   19:50   26.5    69    0.1   267      0.8   832.7   10.04       0    999.0
  57   20:00   26.5    69    0.4   243      1.2   832.6   10.04       0    999.0
  57   20:10   26.9    69    0.4   249      0.9   832.4   10.04       0    999.0
  57   20:20   27.6    67    0.4   255      0.8   832.5   10.04       0    999.0
  57   20:30   27.9    68    0.3   185      1.6   832.5   10.04       0    999.0
  57   20:40   27.6    67    0.0   228      0.1   832.1   10.04       0    999.0
  57   20:50   27.4    69    0.1   264      0.7   832.0   10.04       0    999.0
  57   21:00   27.9    69    0.2   284      1.2   832.0   10.04       0    999.0
  57   21:10   28.2    68    0.1   298      0.6   832.2   10.04       0    999.0
  57   21:20   28.0    68    0.1   288      0.6   832.0   10.04       0    999.0
  57   21:30   27.7    68    0.2   280      0.7   831.8   10.04       0    999.0
  57   21:40   27.4    68    0.0   279      0.2   831.6   10.04       0    999.0
  57   21:50   27.0    70    0.1   237      0.8   831.7   10.04       0    999.0
  57   22:00   26.8    70    0.3   291      1.0   831.9   10.04       0    999.0
  57   22:10   26.6    71    0.3   234      1.3   831.4   10.04       0    999.0
  57   22:20   26.4    72    0.5   220      1.5   831.3   10.04       0    999.0
  57   22:30   26.2    72    0.1   250      0.8   831.3   10.04       0    999.0
  57   22:40   26.0    72    0.1   271      0.6   831.5   10.04       0    999.0
  57   22:50   25.9    72    0.2   301      1.3   831.4   10.04       0    999.0
  57   23:00   26.1    72    0.2   253      1.1   831.3   10.04       0    999.0
  57   23:10   26.3    74    0.3    95      1.5   831.4   10.04       0    999.0
  57   23:20   26.5    72    0.2   309      0.9   831.2   10.04       0    999.0
  57   23:30   26.6    73    0.5   301      1.3   831.0   10.04       0    999.0
  57   23:40   26.7    73    0.1    38      0.7   830.6   10.04       0    999.0
  57   23:50   26.8    73    0.3    44      1.4   830.8   10.04       0    999.0
  58    0:00   26.9    72    0.6    67      1.9   830.9   10.04       0    999.0
  58    0:10   27.1    72    0.3   341      1.7   831.0   10.04       0    999.0
  58    0:20   27.4    72    2.0    84      5.5   830.7   10.04       0    999.0
  58    0:30   28.4    70    1.8   103      4.3   830.3   10.04       0    999.0
  58    0:40   28.5    70    0.9   249      2.2   830.8   10.04       0    999.0
  58    0:50   28.3    71    0.4   245      1.7   830.6   10.04       0    999.0
  58    1:00   28.2    71    1.0    67      3.3   830.4   10.04       0    999.0
  58    1:10   28.0    71    1.2   114      3.3   830.1   10.04       0    999.0
  58    1:20   28.0    70    0.6   102      2.1   830.4   10.04       0    999.0
  58    1:30   27.6    70    0.3    70      2.0   830.6   10.04       0    999.0
  58    1:40   27.6    71    0.4   275      1.7   830.4   10.04       0    999.0
  58    1:50   27.6    72    0.2   125      1.4   830.2   10.04       0    999.0
  58    2:00   27.4    72    0.5    93      2.3   830.1   10.04       0    999.0
  58    2:10   27.3    72    0.0     0      0.0   830.5   10.04       0    999.0
  58    2:20   27.1    73    0.1   208      1.4   830.4   10.04       0    999.0
  58    2:30   27.2    73    0.2   248      1.5   830.2   10.04       0    999.0
  58    2:40   27.2    73    0.0     0      0.0   829.7   10.04       0    999.0
  58    2:50   27.2    73    0.1   266      0.8   829.9   10.04       0    999.0
  58    3:00   27.2    73    0.0     0      0.0   830.1   10.04       0    999.0
  58    3:10   27.0    74    0.1   275      0.5   829.7   10.04       0    999.0
  58    3:20   26.8    75    0.1   277      0.8   829.6   10.04       0    999.0
  58    3:30   26.5    77    0.1   257      1.2   829.4   10.04       0    999.0
  58    3:40   26.2    77    0.0   266      0.5   829.8   10.04       0    999.0
  58    3:50   25.9    78    0.1   266      0.6   829.5   10.04       0    999.0
  58    4:00   25.6    79    0.0   279      0.3   829.3   10.04       0    999.0
  58    4:10   25.3    81    0.1   196      0.7   829.2   10.04       0    999.0
  58    4:20   25.1    82    0.0     0      0.0   829.3   10.04       0    999.0
  58    4:30   25.0    82    0.0     0      0.0   829.4   10.04       0    999.0
  58    4:40   24.9    83    0.0     0      0.0   828.9   10.04       0    999.0
  58    4:50   24.6    84    0.0   261      0.3   829.1   10.04       0    999.0
  58    5:00   24.4    84    0.0   262      0.5   829.3   10.04       0    999.0
  58    5:10   24.2    85    0.1   262      0.9   829.2   10.04       0    999.0
  58    5:20   23.9    85    0.0   282      0.1   829.0   10.04       0    999.0
  58    5:30   23.8    86    0.0   262      0.3   828.8   10.04       0    999.0
  58    5:40   23.6    86    0.0     0      0.0   829.3   10.04       0    999.0
  58    5:50   23.6    87    0.1   289      0.9   829.1   10.04       0    999.0
  58    6:00   23.7    87    0.0   344      0.6   828.9   10.04       0    999.0
  58    6:10   24.0    87    0.2   280      1.1   829.1   10.04       0    999.0
  58    6:20   24.4    86    0.3   269      0.9   829.1   10.04       0    999.0
  58    6:30   24.4    86    0.2   294      1.4   829.1   10.04       1    999.0
  58    6:40   24.1    86    0.0   248      0.3   828.7   10.04       3    999.0
  58    6:50   23.8    87    0.1   243      0.8   828.8   10.04       5    999.0
  58    7:00   23.5    88    0.1   287      0.7   828.9   10.04       8    999.0
  58    7:10   23.4    88    0.1   248      0.9   828.7   10.04      12    999.0
  58    7:20   23.3    89    0.3    97      2.2   828.5   10.04      22    999.0
  58    7:30   23.6    89    0.3   198      1.9   828.3   10.04      46    999.0
  58    7:40   24.3    88    0.3    84      2.2   828.8   10.04     128    999.0
  58    7:50   25.1    88    0.1   148      1.1   828.6   10.04     103    999.0
  58    8:00   26.5    88    0.1   214      1.0   828.4   10.04      87    999.0
  58    8:10   27.9    86    0.2   130      1.1   828.7   10.04      70    999.0
  58    8:20   28.8    84    0.8   291      1.9   828.7   10.04     125    999.0
  58    8:30   30.1    81    0.6   124      2.8   828.8   10.04      56    999.0
  58    8:40   30.7    80    0.7   245      2.7   828.3   10.04     112    999.0
  58    8:50   31.2    79    0.6   292      1.5   828.5   10.04      90    999.0
  58    9:00   32.1    78    0.7   179      2.0   828.6   10.04     136    999.0
  58    9:10   34.3    74    0.4   160      2.1   828.5   10.04     403    999.0
  58    9:20   38.8    54    2.4   203      6.3   828.1   10.04     356    999.0
  58    9:30   39.9    53    3.7   194      8.7   827.8   10.04     421    999.0
  58    9:40   39.5    58    2.3   212      6.5   828.1   10.04     223    999.0
  58    9:50   38.6    65    1.7   226      3.4   828.2   10.04     497    999.0
  58   10:00   38.8    64    1.6   245      4.8   828.2   10.04     186    999.0
  58   10:10   38.3    64    1.9   209      8.2   828.0   10.04     541    999.0
  58   10:20   40.3    56    2.7   173      6.7   828.0   10.04     613    999.0
  58   10:30   41.8    51    2.1   217      7.1   828.1   10.04     559    999.0
  58   10:40   40.7    49    3.4   235      8.5   827.5   10.04     178    999.0
  58   10:50   35.6    74    1.9   244      6.4   827.9   10.05      87    999.0
  58   11:00   33.5    81    1.6   183      3.8   828.2   10.05     133    999.0
  58   11:10   33.8    80    0.4   162      2.2   827.8   10.05     206    999.0
  58   11:20   35.7    76    1.2   180      3.1   827.8   10.04     396    999.0
  58   11:30   39.1    60    2.0   204      4.7   827.9   10.04     460    999.0
  58   11:40   39.9    51    2.3   252      7.4   827.7   10.04     270    999.0
  58   11:50   40.5    48    2.8   258      9.1   827.6   10.04     579    999.0
  58   12:00   41.5    47    2.6   242      7.5   827.5   10.04     746    999.0
  58   12:10   42.5    43    3.3   250      7.9   827.0   10.04     768    999.0
  58   12:20   41.7    44    2.8   256      5.9   827.2   10.04     267    999.0
  58   12:30   40.2    47    1.4   228      5.9   827.4   10.04     464    999.0
  58   12:40   42.7    42    2.7   267      6.6   826.6   10.04     762    999.0
  58   12:50   42.7    42    3.7   268      7.5   826.8   10.04     688    999.0
  58   13:00   43.4    40    3.2   225      7.8   826.9   10.04     840    999.0
  58   13:10   43.6    39    3.4   229      7.2   826.6   10.04     772    999.0
  58   13:20   43.7    40    2.8   241     10.5   826.4   10.04     694    999.0
  58   13:30   43.3    39    3.6   244      9.8   826.2   10.04     726    999.0
  58   13:40   42.9    37    3.8   276      9.4   826.5   10.04     627    999.0
  58   13:50   42.0    42    3.3   270      7.7   826.4   10.04     684    999.0
  58   14:00   42.1    41    3.8   251      8.0   826.3   10.04     670    999.0
  58   14:10   42.7    42    3.1   241      6.9   825.9   10.04     667    999.0
  58   14:20   42.0    42    3.2   282      9.3   826.0   10.04     620    999.0
  58   14:30   41.0    47    3.6   282      8.1   826.1   10.04     604    999.0
  58   14:40   40.7    50    3.5   239      8.8   825.9   10.04     540    999.0
  58   14:50   40.4    52    3.1   223      8.4   825.9   10.04     353    999.0
  58   15:00   37.0    68    3.1   160      7.8   825.9   10.04     430    999.0
  58   15:10   36.9    66    2.4   127      5.2   826.0   10.04     297    999.0
  58   15:20   36.2    69    1.8   244      6.6   825.9   10.05      59    999.0
  58   15:30   33.5    82    1.0   246      3.0   825.9   10.06      44    999.0
  58   15:40   32.6    87    0.3    76      1.1   826.4   10.07      22    999.0
  58   15:50   32.2    88    0.5   113      1.7   826.1   10.08      40    999.0
  58   16:00   32.1    88    0.0    75      0.2   825.8   10.09      27    999.0
  58   16:10   32.3    88    0.3   340      2.5   826.1   10.10     105    999.0
  58   16:20   33.2    85    0.7   357      2.7   826.0   10.10     148    999.0
  58   16:30   34.3    79    1.2   252      7.3   826.0   10.10      55    999.0
  58   16:40   34.1    73    2.1   251      6.5   825.3   10.10      17    999.0
  58   16:50   33.3    74    1.6   218      3.7   825.5   10.10      17    999.0
  58   17:00   32.7    76    0.9   150      2.0   825.7   10.10      69    999.0

Return to Sagehen Creek graphs page.


Western Regional Climate Center,wrcc@dri.edu